createdAt,value
2023-08-02T00:01:49.069Z,2.70
2023-08-02T00:04:17.628Z,2.70
2023-08-02T00:06:45.833Z,3.00
2023-08-02T00:09:14.952Z,2.50
2023-08-02T00:11:43.388Z,2.90
2023-08-02T00:14:11.355Z,3.20
2023-08-02T00:16:39.282Z,3.00
2023-08-02T00:19:07.635Z,3.20
2023-08-02T00:21:35.878Z,3.10
2023-08-02T00:24:04.390Z,3.20
2023-08-02T00:26:32.828Z,2.80
2023-08-02T00:29:00.832Z,2.60
2023-08-02T00:31:28.967Z,3.30
2023-08-02T00:33:56.809Z,2.50
2023-08-02T00:36:24.970Z,3.10
2023-08-02T00:38:53.010Z,2.60
2023-08-02T00:41:21.215Z,2.60
2023-08-02T00:43:49.679Z,3.20
2023-08-02T00:46:23.663Z,3.10
2023-08-02T00:48:51.954Z,3.00
2023-08-02T00:51:20.953Z,3.10
2023-08-02T00:53:49.431Z,3.00
2023-08-02T00:56:17.580Z,2.50
2023-08-02T00:58:47.006Z,2.60
2023-08-02T01:01:15.003Z,2.80
2023-08-02T01:03:47.743Z,2.80
2023-08-02T01:06:41.461Z,2.60
2023-08-02T01:09:36.975Z,2.60
2023-08-02T01:12:12.384Z,2.80
2023-08-02T01:14:55.975Z,2.40
2023-08-02T01:17:28.412Z,2.90
2023-08-02T01:20:07.456Z,2.60
2023-08-02T01:22:35.892Z,2.50
2023-08-02T01:25:05.699Z,3.30
2023-08-02T01:27:38.389Z,2.60
2023-08-02T01:30:09.782Z,2.60
2023-08-02T01:32:38.938Z,2.50
2023-08-02T01:35:09.102Z,2.70
2023-08-02T01:37:37.206Z,2.60
2023-08-02T01:40:05.733Z,3.10
2023-08-02T01:42:33.979Z,3.00
2023-08-02T01:45:01.931Z,3.00
2023-08-02T01:47:30.107Z,2.80
2023-08-02T01:49:58.594Z,3.60
2023-08-02T01:52:26.777Z,3.60
2023-08-02T01:54:54.882Z,3.60
2023-08-02T01:57:23.104Z,2.70
2023-08-02T01:59:51.701Z,3.30
2023-08-02T02:02:19.877Z,2.80
2023-08-02T02:04:47.936Z,3.70
2023-08-02T02:07:17.084Z,3.20
2023-08-02T02:09:45.283Z,2.90
2023-08-02T02:12:13.495Z,3.50
2023-08-02T02:14:41.294Z,3.60
2023-08-02T02:17:09.289Z,3.70
2023-08-02T02:22:08.968Z,4.50
2023-08-02T02:24:37.115Z,4.40
2023-08-02T02:27:05.829Z,4.50
2023-08-02T02:29:33.935Z,4.70
2023-08-02T02:32:01.968Z,4.40
2023-08-02T02:34:30.226Z,4.60
2023-08-02T02:36:58.279Z,4.70
2023-08-02T02:39:27.091Z,4.20
2023-08-02T02:41:55.148Z,4.20
2023-08-02T02:44:23.032Z,4.10
2023-08-02T02:46:51.100Z,4.20
2023-08-02T02:49:19.400Z,4.60
2023-08-02T02:51:47.739Z,4.40
2023-08-02T02:54:15.908Z,3.90
2023-08-02T02:56:43.959Z,4.00
2023-08-02T02:59:12.137Z,3.80
2023-08-02T03:01:40.226Z,4.10
2023-08-02T03:04:08.713Z,3.10
2023-08-02T03:06:36.696Z,2.30
2023-08-02T03:09:05.464Z,2.60
2023-08-02T03:11:33.413Z,2.40
2023-08-02T03:14:02.329Z,3.00
2023-08-02T03:16:30.299Z,2.80
2023-08-02T03:18:58.413Z,2.90
2023-08-02T03:21:26.360Z,3.60
2023-08-02T03:23:54.400Z,3.70
2023-08-02T03:26:22.472Z,3.60
2023-08-02T03:28:50.538Z,3.40
2023-08-02T03:31:18.505Z,3.50
2023-08-02T03:33:46.463Z,3.90
2023-08-02T03:36:14.539Z,3.30
2023-08-02T03:38:43.737Z,3.60
2023-08-02T03:41:12.221Z,3.70
2023-08-02T03:43:40.489Z,3.50
2023-08-02T03:46:08.418Z,3.90
2023-08-02T03:48:36.658Z,3.20
2023-08-02T03:51:04.588Z,3.90
2023-08-02T03:53:32.886Z,4.10
2023-08-02T03:56:00.845Z,3.60
2023-08-02T03:58:29.017Z,3.40
2023-08-02T04:00:57.068Z,3.60
2023-08-02T04:03:25.267Z,4.00
2023-08-02T04:05:53.124Z,3.50
2023-08-02T04:08:21.077Z,3.70
2023-08-02T04:10:49.182Z,4.20
2023-08-02T04:13:17.341Z,3.80
2023-08-02T04:15:45.510Z,6.40
2023-08-02T04:18:13.379Z,7.70
2023-08-02T04:20:41.601Z,8.30
2023-08-02T04:23:09.638Z,8.80
2023-08-02T04:25:37.795Z,7.00
2023-08-02T04:28:07.304Z,6.10
2023-08-02T04:30:35.372Z,6.10
2023-08-02T04:33:03.422Z,5.90
2023-08-02T04:35:31.918Z,3.90
2023-08-02T04:38:00.104Z,3.80
2023-08-02T04:40:29.105Z,4.00
2023-08-02T04:42:57.272Z,4.30
2023-08-02T04:45:25.526Z,4.90
2023-08-02T04:47:53.774Z,4.20
2023-08-02T04:50:22.109Z,5.10
2023-08-02T04:52:50.366Z,4.30
2023-08-02T04:55:18.450Z,4.70
2023-08-02T04:57:46.669Z,4.60
2023-08-02T05:00:15.391Z,5.00
2023-08-02T05:02:43.629Z,5.10
2023-08-02T05:05:11.939Z,4.70
2023-08-02T05:07:41.319Z,4.50
2023-08-02T05:10:10.044Z,4.50
2023-08-02T05:12:41.628Z,4.50
2023-08-02T05:15:09.708Z,4.40
2023-08-02T05:17:38.102Z,4.70
2023-08-02T05:20:07.134Z,4.70
2023-08-02T05:22:35.068Z,5.00
2023-08-02T05:25:04.013Z,4.90
2023-08-02T05:27:32.157Z,4.70
2023-08-02T05:30:00.417Z,5.50
2023-08-02T05:32:28.562Z,5.50
2023-08-02T05:34:57.144Z,5.00
2023-08-02T05:37:25.373Z,4.50
2023-08-02T05:39:53.638Z,4.90
2023-08-02T05:42:21.647Z,5.00
2023-08-02T05:44:49.677Z,4.30
2023-08-02T05:47:17.876Z,5.00
2023-08-02T05:49:46.125Z,4.90
2023-08-02T05:52:14.185Z,6.00
2023-08-02T05:54:42.367Z,4.60
2023-08-02T05:57:10.516Z,4.70
2023-08-02T05:59:39.356Z,4.50
2023-08-02T06:02:08.691Z,3.80
2023-08-02T06:04:40.492Z,4.00
2023-08-02T06:07:08.791Z,4.80
2023-08-02T06:09:37.290Z,5.10
2023-08-02T06:12:05.661Z,4.10
2023-08-02T06:14:33.517Z,4.10
2023-08-02T06:17:01.964Z,3.80
2023-08-02T06:19:31.399Z,3.90
2023-08-02T06:21:59.633Z,3.90
2023-08-02T06:24:28.430Z,3.50
2023-08-02T06:26:56.533Z,3.10
2023-08-02T06:29:24.471Z,3.30
2023-08-02T06:31:52.668Z,4.50
2023-08-02T06:34:21.029Z,3.70
2023-08-02T06:36:49.085Z,4.00
2023-08-02T06:39:17.844Z,4.20
2023-08-02T06:41:45.867Z,4.40
2023-08-02T06:44:14.930Z,4.40
2023-08-02T06:46:43.435Z,4.30
2023-08-02T06:49:11.693Z,4.30
2023-08-02T06:51:40.399Z,3.20
2023-08-02T06:54:08.954Z,3.70
2023-08-02T06:56:36.955Z,4.50
2023-08-02T06:59:05.020Z,4.90
2023-08-02T07:01:33.285Z,5.40
2023-08-02T07:04:02.100Z,5.50
2023-08-02T07:06:30.205Z,5.60
2023-08-02T07:08:58.195Z,5.70
2023-08-02T07:11:46.166Z,5.00
2023-08-02T07:14:14.191Z,6.40
2023-08-02T07:16:42.059Z,5.80
2023-08-02T07:19:10.188Z,5.00
2023-08-02T07:21:41.398Z,4.60
2023-08-02T07:26:38.166Z,4.10
2023-08-02T07:29:06.337Z,4.50
2023-08-02T07:31:34.347Z,3.50
2023-08-02T07:34:02.189Z,4.30
2023-08-02T07:36:30.986Z,4.20
2023-08-02T07:38:58.836Z,4.10
2023-08-02T07:41:28.416Z,4.10
2023-08-02T07:43:56.492Z,4.10
2023-08-02T07:46:24.619Z,3.90
2023-08-02T07:48:53.483Z,4.00
2023-08-02T07:51:21.806Z,3.90
2023-08-02T07:53:50.820Z,4.00
2023-08-02T07:56:19.299Z,3.70
2023-08-02T07:58:47.262Z,2.80
2023-08-02T08:01:15.343Z,3.30
2023-08-02T08:03:43.456Z,3.40
2023-08-02T08:06:14.049Z,3.80
2023-08-02T08:08:43.719Z,3.60
2023-08-02T08:11:12.222Z,3.30
2023-08-02T08:13:40.336Z,3.30
2023-08-02T08:16:08.895Z,3.10
2023-08-02T08:18:37.824Z,3.10
2023-08-02T08:21:06.417Z,3.10
2023-08-02T08:23:35.445Z,3.30
2023-08-02T08:26:03.933Z,3.10
2023-08-02T08:28:32.376Z,2.80
2023-08-02T08:31:05.281Z,3.50
2023-08-02T08:33:33.470Z,2.90
2023-08-02T08:36:02.389Z,2.70
2023-08-02T08:38:31.614Z,2.90
2023-08-02T08:40:59.666Z,3.20
2023-08-02T08:43:29.649Z,2.80
2023-08-02T08:45:58.924Z,3.30
2023-08-02T08:48:28.369Z,2.80
2023-08-02T08:50:57.553Z,3.20
2023-08-02T08:53:34.357Z,3.10
2023-08-02T08:56:05.540Z,2.60
2023-08-02T08:58:35.572Z,2.70
2023-08-02T09:01:07.587Z,2.80
2023-08-02T09:03:36.537Z,2.20
2023-08-02T09:06:05.873Z,2.50
2023-08-02T09:08:51.926Z,2.20
2023-08-02T09:11:20.094Z,2.60
2023-08-02T09:13:48.393Z,2.70
2023-08-02T09:16:18.391Z,2.60
2023-08-02T09:18:49.164Z,2.40
2023-08-02T09:21:23.718Z,2.30
2023-08-02T09:24:02.035Z,2.20
2023-08-02T09:26:30.327Z,2.20
2023-08-02T09:29:02.397Z,2.20
2023-08-02T09:31:34.307Z,2.00
2023-08-02T09:34:03.349Z,1.80
2023-08-02T09:36:33.281Z,1.70
2023-08-02T09:39:20.382Z,1.70
2023-08-02T09:41:58.990Z,1.50
2023-08-02T09:44:29.659Z,1.70
2023-08-02T09:47:09.588Z,1.50
2023-08-02T09:49:38.684Z,1.20
2023-08-02T09:52:09.755Z,1.40
2023-08-02T09:57:07.626Z,1.50
2023-08-02T09:59:37.725Z,1.50
2023-08-02T10:02:06.269Z,1.30
2023-08-02T10:04:35.701Z,1.40
2023-08-02T10:07:09.607Z,1.30
2023-08-02T10:09:38.997Z,1.40
2023-08-02T10:12:18.138Z,1.30
2023-08-02T10:14:47.850Z,1.60
2023-08-02T10:17:17.468Z,1.20
2023-08-02T10:19:47.345Z,1.20
2023-08-02T10:22:16.968Z,1.20
2023-08-02T10:24:48.980Z,1.30
2023-08-02T10:27:18.515Z,1.00
2023-08-02T10:29:49.051Z,0.90
2023-08-02T10:32:20.295Z,1.10
2023-08-02T10:34:51.290Z,0.90
2023-08-02T10:37:22.095Z,0.80
2023-08-02T10:39:49.881Z,1.10
2023-08-02T10:42:26.036Z,1.00
2023-08-02T10:44:57.288Z,1.00
2023-08-02T10:47:32.098Z,0.80
2023-08-02T10:50:02.588Z,0.90
2023-08-02T10:52:34.271Z,0.50
2023-08-02T10:55:29.484Z,0.70
2023-08-02T10:57:57.911Z,0.50
2023-08-02T11:00:27.575Z,1.00
2023-08-02T11:02:55.680Z,0.80
2023-08-02T11:05:44.806Z,0.60
2023-08-02T11:08:14.534Z,0.60
2023-08-02T11:10:54.552Z,0.70
2023-08-02T11:13:23.938Z,0.90
2023-08-02T11:16:04.957Z,0.80
2023-08-02T11:21:13.259Z,0.60
2023-08-02T11:26:18.530Z,0.60
2023-08-02T11:28:53.630Z,0.60
2023-08-02T11:31:27.455Z,0.70
2023-08-02T11:33:55.611Z,0.60
2023-08-02T11:36:24.234Z,0.70
2023-08-02T11:38:52.173Z,0.70
2023-08-02T11:41:21.857Z,0.60
2023-08-02T11:43:50.584Z,0.40
2023-08-02T11:46:27.091Z,0.60
2023-08-02T11:49:05.452Z,0.70
2023-08-02T11:51:33.514Z,0.60
2023-08-02T11:54:01.840Z,0.70
2023-08-02T11:56:30.068Z,0.60
2023-08-02T11:58:58.719Z,0.50
2023-08-02T12:01:26.815Z,0.40
2023-08-02T12:04:04.389Z,0.50
2023-08-02T12:06:54.253Z,0.60
2023-08-02T12:09:41.792Z,0.60
2023-08-02T12:12:09.843Z,0.60
2023-08-02T12:14:38.156Z,0.60
2023-08-02T12:17:06.246Z,0.50
2023-08-02T12:19:41.249Z,0.80
2023-08-02T12:22:09.277Z,0.60
2023-08-02T12:24:37.743Z,0.60
2023-08-02T12:27:31.907Z,0.60
2023-08-02T12:30:11.640Z,0.50
2023-08-02T12:32:39.997Z,0.50
2023-08-02T12:35:12.271Z,0.70
2023-08-02T12:37:40.533Z,0.90
2023-08-02T12:40:09.330Z,0.90
2023-08-02T12:42:45.603Z,0.80
2023-08-02T12:45:18.446Z,0.70
2023-08-02T12:47:46.879Z,0.80
2023-08-02T12:50:14.954Z,1.00
2023-08-02T12:52:43.852Z,1.20
2023-08-02T12:55:11.929Z,0.90
2023-08-02T12:57:39.990Z,0.80
2023-08-02T13:00:09.310Z,0.80
2023-08-02T13:02:39.461Z,0.80
2023-08-02T13:05:08.110Z,0.90
2023-08-02T13:07:43.885Z,0.60
2023-08-02T13:10:12.907Z,1.00
2023-08-02T13:12:40.845Z,0.80
2023-08-02T13:15:09.729Z,0.80
2023-08-02T13:17:37.964Z,1.10
2023-08-02T13:20:06.853Z,0.80
2023-08-02T13:22:34.839Z,1.10
2023-08-02T13:25:03.756Z,1.20
2023-08-02T13:27:34.458Z,0.80
2023-08-02T13:30:03.818Z,1.10
2023-08-02T13:32:35.687Z,1.10
2023-08-02T13:35:05.729Z,1.50
2023-08-02T13:37:35.619Z,1.10
2023-08-02T13:40:04.024Z,0.90
2023-08-02T13:42:35.048Z,0.80
2023-08-02T13:45:02.998Z,1.40
2023-08-02T13:47:31.088Z,1.00
2023-08-02T13:49:59.000Z,1.10
2023-08-02T13:52:27.086Z,1.00
2023-08-02T13:54:54.977Z,0.90
2023-08-02T13:57:23.078Z,0.70
2023-08-02T13:59:51.079Z,1.00
2023-08-02T14:02:19.025Z,0.90
2023-08-02T14:04:47.263Z,0.80
2023-08-02T14:07:15.254Z,0.90
2023-08-02T14:09:43.397Z,0.80
2023-08-02T14:12:16.310Z,0.80
2023-08-02T14:14:44.605Z,1.10
2023-08-02T14:17:12.909Z,1.00
2023-08-02T14:19:40.877Z,0.90
2023-08-02T14:22:09.233Z,1.10
2023-08-02T14:24:37.066Z,1.00
2023-08-02T14:27:08.825Z,1.00
2023-08-02T14:29:38.837Z,1.00
2023-08-02T14:32:07.604Z,0.90
2023-08-02T14:34:35.706Z,0.80
2023-08-02T14:37:04.294Z,0.90
2023-08-02T14:39:32.518Z,0.90
2023-08-02T14:42:00.727Z,0.80
2023-08-02T14:44:28.695Z,0.90
2023-08-02T14:46:56.619Z,0.70
2023-08-02T14:49:24.616Z,1.00
2023-08-02T14:51:52.419Z,0.80
2023-08-02T14:54:20.568Z,1.00
2023-08-02T14:56:48.750Z,0.70
2023-08-02T14:59:17.528Z,0.80
2023-08-02T15:01:45.651Z,0.80
2023-08-02T15:04:13.851Z,0.90
2023-08-02T15:06:42.161Z,0.80
2023-08-02T15:09:10.372Z,1.10
2023-08-02T15:11:38.316Z,1.00
2023-08-02T15:14:06.648Z,1.10
2023-08-02T15:16:35.118Z,0.80
2023-08-02T15:19:03.442Z,1.00
2023-08-02T15:21:32.285Z,0.90
2023-08-02T15:24:00.243Z,1.00
2023-08-02T15:26:28.363Z,0.80
2023-08-02T15:28:56.330Z,0.80
2023-08-02T15:31:24.710Z,0.80
2023-08-02T15:33:53.192Z,0.90
2023-08-02T15:36:21.218Z,0.90
2023-08-02T15:38:53.720Z,0.70
2023-08-02T15:41:21.905Z,0.80
2023-08-02T15:43:49.994Z,0.90
2023-08-02T15:46:19.808Z,1.00
2023-08-02T15:48:47.955Z,0.80
2023-08-02T15:51:15.918Z,0.90
2023-08-02T15:53:44.091Z,0.70
2023-08-02T15:56:11.961Z,0.90
2023-08-02T15:58:42.602Z,1.10
2023-08-02T16:01:11.018Z,0.90
2023-08-02T16:03:42.224Z,0.90
2023-08-02T16:06:11.592Z,1.00
2023-08-02T16:08:40.030Z,1.10
2023-08-02T16:11:08.499Z,0.90
2023-08-02T16:13:36.584Z,0.90
2023-08-02T16:16:05.089Z,0.90
2023-08-02T16:18:33.106Z,1.10
2023-08-02T16:21:02.427Z,1.00
2023-08-02T16:23:30.540Z,0.90
2023-08-02T16:25:58.764Z,1.00
2023-08-02T16:28:27.349Z,1.10
2023-08-02T16:30:55.446Z,1.10
2023-08-02T16:33:23.404Z,1.00
2023-08-02T16:35:51.679Z,1.00
2023-08-02T16:38:19.818Z,0.90
2023-08-02T16:40:48.031Z,0.80
2023-08-02T16:43:17.598Z,1.00
2023-08-02T16:45:45.772Z,1.00
2023-08-02T16:48:13.845Z,1.00
2023-08-02T16:50:42.026Z,0.90
2023-08-02T16:53:10.189Z,0.80
2023-08-02T16:55:38.297Z,1.10
2023-08-02T16:58:06.368Z,1.20
2023-08-02T17:00:35.251Z,1.40
2023-08-02T17:03:03.662Z,0.90
2023-08-02T17:05:32.188Z,0.80
2023-08-02T17:08:00.460Z,0.90
2023-08-02T17:10:28.570Z,1.00
2023-08-02T17:12:56.900Z,1.00
2023-08-02T17:15:25.498Z,0.90
2023-08-02T17:17:53.474Z,1.10
2023-08-02T17:20:21.424Z,1.20
2023-08-02T17:22:49.393Z,1.10
2023-08-02T17:25:17.655Z,1.00
2023-08-02T17:27:46.755Z,1.30
2023-08-02T17:30:15.238Z,1.10
2023-08-02T17:32:43.556Z,0.90
2023-08-02T17:35:11.832Z,1.20
2023-08-02T17:37:41.584Z,1.10
2023-08-02T17:40:10.743Z,1.20
2023-08-02T17:42:38.636Z,1.20
2023-08-02T17:45:07.569Z,1.30
2023-08-02T17:47:35.772Z,1.70
2023-08-02T17:50:03.909Z,1.30
2023-08-02T17:52:32.009Z,1.80
2023-08-02T17:55:00.131Z,1.60
2023-08-02T17:57:28.417Z,1.80
2023-08-02T17:59:58.418Z,2.00
2023-08-02T18:02:26.674Z,2.20
2023-08-02T18:04:55.733Z,2.10
2023-08-02T18:07:24.004Z,1.80
2023-08-02T18:09:53.066Z,1.90
2023-08-02T18:12:21.284Z,2.00
2023-08-02T18:14:49.430Z,2.10
2023-08-02T18:17:17.766Z,2.50
2023-08-02T18:19:46.895Z,3.00
2023-08-02T18:22:15.173Z,2.20
2023-08-02T18:24:43.458Z,2.20
2023-08-02T18:27:11.532Z,3.50
2023-08-02T18:29:39.692Z,4.40
2023-08-02T18:32:08.103Z,4.00
2023-08-02T18:34:36.239Z,3.90
2023-08-02T18:37:04.610Z,4.50
2023-08-02T18:39:35.386Z,3.60
2023-08-02T18:42:04.034Z,4.70
2023-08-02T18:44:32.724Z,2.60
2023-08-02T18:47:00.811Z,2.90
2023-08-02T18:49:29.051Z,3.60
2023-08-02T18:51:57.164Z,3.10
2023-08-02T18:54:26.336Z,2.70
2023-08-02T18:56:55.379Z,1.90
2023-08-02T18:59:23.808Z,2.00
2023-08-02T19:01:51.997Z,2.10
2023-08-02T19:04:20.122Z,1.90
2023-08-02T19:06:48.958Z,2.30
2023-08-02T19:09:17.132Z,2.40
2023-08-02T19:11:45.537Z,2.20
2023-08-02T19:14:14.737Z,2.40
2023-08-02T19:16:43.359Z,1.80
2023-08-02T19:19:42.199Z,1.60
2023-08-02T19:22:12.681Z,1.80
2023-08-02T19:24:42.517Z,1.90
2023-08-02T19:27:13.907Z,1.90
2023-08-02T19:29:43.521Z,1.80
2023-08-02T19:32:16.868Z,1.70
2023-08-02T19:34:50.043Z,2.20
2023-08-02T19:37:20.960Z,2.10
2023-08-02T19:39:48.949Z,2.20
2023-08-02T19:42:16.993Z,1.80
2023-08-02T19:44:49.281Z,2.20
2023-08-02T19:47:24.932Z,2.10
2023-08-02T19:49:55.572Z,2.40
2023-08-02T19:52:23.735Z,2.40
2023-08-02T19:54:51.800Z,1.70
2023-08-02T19:57:19.722Z,1.50
2023-08-02T19:59:47.660Z,1.30
2023-08-02T20:02:26.713Z,1.40
2023-08-02T20:04:54.742Z,1.30
2023-08-02T20:07:23.463Z,1.40
2023-08-02T20:09:54.152Z,1.50
2023-08-02T20:12:22.533Z,1.50
2023-08-02T20:14:50.911Z,1.40
2023-08-02T20:17:19.270Z,1.70
2023-08-02T20:19:47.967Z,1.30
2023-08-02T20:22:17.302Z,1.10
2023-08-02T20:24:52.219Z,1.00
2023-08-02T20:27:20.374Z,1.10
2023-08-02T20:29:48.584Z,1.00
2023-08-02T20:32:21.036Z,1.70
2023-08-02T20:34:51.753Z,1.10
2023-08-02T20:37:19.738Z,1.10
2023-08-02T20:39:48.003Z,1.40
2023-08-02T20:42:17.938Z,1.10
2023-08-02T20:44:45.958Z,1.20
2023-08-02T20:47:17.898Z,1.60
2023-08-02T20:49:46.961Z,1.10
2023-08-02T20:52:15.231Z,1.20
2023-08-02T20:54:45.153Z,1.50
2023-08-02T20:57:17.228Z,1.60
2023-08-02T20:59:45.250Z,1.50
2023-08-02T21:02:24.476Z,1.10
2023-08-02T21:04:52.391Z,1.20
2023-08-02T21:07:26.575Z,1.60
2023-08-02T21:09:57.506Z,1.30
2023-08-02T21:12:25.628Z,1.30
2023-08-02T21:14:53.919Z,1.20
2023-08-02T21:17:22.377Z,1.60
2023-08-02T21:19:50.485Z,1.20
2023-08-02T21:22:19.532Z,1.00
2023-08-02T21:24:47.803Z,1.20
2023-08-02T21:27:16.178Z,1.30
2023-08-02T21:29:47.143Z,1.40
2023-08-02T21:32:15.837Z,1.20
2023-08-02T21:34:45.167Z,1.00
2023-08-02T21:37:13.463Z,1.00
2023-08-02T21:39:45.601Z,1.50
2023-08-02T21:42:24.049Z,1.20
2023-08-02T21:44:52.209Z,1.40
2023-08-02T21:47:20.152Z,1.50
2023-08-02T21:49:54.126Z,1.40
2023-08-02T21:52:22.271Z,1.90
2023-08-02T21:54:50.354Z,1.90
2023-08-02T21:57:18.750Z,1.80
2023-08-02T21:59:47.765Z,1.40
2023-08-02T22:02:15.961Z,1.40
2023-08-02T22:04:45.607Z,1.90
2023-08-02T22:07:15.303Z,1.40
2023-08-02T22:09:44.907Z,1.70
2023-08-02T22:12:16.599Z,1.80
2023-08-02T22:14:44.827Z,1.70
2023-08-02T22:17:21.412Z,1.80
2023-08-02T22:19:49.561Z,1.90
2023-08-02T22:22:17.848Z,1.90
2023-08-02T22:24:48.005Z,1.50
2023-08-02T22:27:17.202Z,1.70
2023-08-02T22:29:58.560Z,1.30
2023-08-02T22:32:32.289Z,1.50
2023-08-02T22:35:00.192Z,1.50
2023-08-02T22:37:28.261Z,1.90
2023-08-02T22:39:56.347Z,1.40
2023-08-02T22:42:24.362Z,1.70
2023-08-02T22:44:52.653Z,1.60
2023-08-02T22:47:20.795Z,1.30
2023-08-02T22:52:23.229Z,1.40
2023-08-02T22:54:54.747Z,1.30
2023-08-02T22:57:24.880Z,1.40
2023-08-02T22:59:52.898Z,1.20
2023-08-02T23:02:23.194Z,1.00
2023-08-02T23:04:53.177Z,1.70
2023-08-02T23:07:22.660Z,1.40
2023-08-02T23:09:57.941Z,1.30
2023-08-02T23:12:26.709Z,1.20
2023-08-02T23:14:59.364Z,1.40
2023-08-02T23:17:27.550Z,1.50
2023-08-02T23:19:55.568Z,1.20
2023-08-02T23:22:23.875Z,1.30
2023-08-02T23:24:51.798Z,1.60
2023-08-02T23:27:24.872Z,1.10
2023-08-02T23:29:53.768Z,1.30
2023-08-02T23:32:21.757Z,1.50
2023-08-02T23:34:49.959Z,1.30
2023-08-02T23:37:17.976Z,1.10
2023-08-02T23:39:48.979Z,1.30
2023-08-02T23:42:16.931Z,1.00
2023-08-02T23:44:45.009Z,1.10
2023-08-02T23:47:13.385Z,1.20
2023-08-02T23:49:41.586Z,0.90
2023-08-02T23:52:09.839Z,1.10
2023-08-02T23:54:38.017Z,1.20
2023-08-02T23:57:06.330Z,1.70
2023-08-02T23:59:34.237Z,1.70
